sensor_id;sensor_type;location;lat;lon;timestamp;P1;durP1;ratioP1;P2;durP2;ratioP2
77322;SDS011;66384;51.052;9.850;2024-02-04T00:02:21;4.60;;;3.80;;
77322;SDS011;66384;51.052;9.850;2024-02-04T00:04:57;5.70;;;4.70;;
77322;SDS011;66384;51.052;9.850;2024-02-04T00:07:33;7.00;;;6.30;;
77322;SDS011;66384;51.052;9.850;2024-02-04T00:10:10;5.50;;;3.70;;
77322;SDS011;66384;51.052;9.850;2024-02-04T00:12:48;3.00;;;2.20;;
77322;SDS011;66384;51.052;9.850;2024-02-04T00:15:25;3.20;;;2.40;;
77322;SDS011;66384;51.052;9.850;2024-02-04T00:18:02;3.40;;;2.20;;
77322;SDS011;66384;51.052;9.850;2024-02-04T00:20:38;4.30;;;2.40;;
77322;SDS011;66384;51.052;9.850;2024-02-04T00:23:15;4.20;;;2.70;;
77322;SDS011;66384;51.052;9.850;2024-02-04T00:25:51;4.80;;;3.20;;
77322;SDS011;66384;51.052;9.850;2024-02-04T00:28:28;4.30;;;2.80;;
77322;SDS011;66384;51.052;9.850;2024-02-04T00:31:04;4.80;;;2.70;;
77322;SDS011;66384;51.052;9.850;2024-02-04T00:33:40;3.90;;;2.70;;
77322;SDS011;66384;51.052;9.850;2024-02-04T00:36:17;4.70;;;3.30;;
77322;SDS011;66384;51.052;9.850;2024-02-04T00:38:54;4.70;;;3.20;;
77322;SDS011;66384;51.052;9.850;2024-02-04T00:41:30;5.60;;;3.60;;
77322;SDS011;66384;51.052;9.850;2024-02-04T00:44:06;3.90;;;2.70;;
77322;SDS011;66384;51.052;9.850;2024-02-04T00:46:43;4.80;;;3.20;;
77322;SDS011;66384;51.052;9.850;2024-02-04T00:49:20;4.60;;;2.60;;
77322;SDS011;66384;51.052;9.850;2024-02-04T00:51:57;3.90;;;3.00;;
77322;SDS011;66384;51.052;9.850;2024-02-04T00:54:33;4.20;;;2.70;;
77322;SDS011;66384;51.052;9.850;2024-02-04T00:57:10;5.10;;;2.80;;
77322;SDS011;66384;51.052;9.850;2024-02-04T00:59:46;5.10;;;3.20;;
77322;SDS011;66384;51.052;9.850;2024-02-04T01:02:23;5.10;;;3.30;;
77322;SDS011;66384;51.052;9.850;2024-02-04T01:04:59;4.30;;;2.80;;
77322;SDS011;66384;51.052;9.850;2024-02-04T01:07:36;5.70;;;3.20;;
77322;SDS011;66384;51.052;9.850;2024-02-04T01:10:13;4.40;;;2.70;;
77322;SDS011;66384;51.052;9.850;2024-02-04T01:12:50;4.30;;;3.00;;
77322;SDS011;66384;51.052;9.850;2024-02-04T01:15:26;4.70;;;3.00;;
77322;SDS011;66384;51.052;9.850;2024-02-04T01:18:03;5.10;;;3.10;;
77322;SDS011;66384;51.052;9.850;2024-02-04T01:20:41;4.30;;;2.70;;
77322;SDS011;66384;51.052;9.850;2024-02-04T01:23:18;3.70;;;2.40;;
77322;SDS011;66384;51.052;9.850;2024-02-04T01:25:54;4.00;;;2.90;;
77322;SDS011;66384;51.052;9.850;2024-02-04T01:28:31;4.80;;;2.90;;
77322;SDS011;66384;51.052;9.850;2024-02-04T01:31:07;5.60;;;3.40;;
77322;SDS011;66384;51.052;9.850;2024-02-04T01:33:43;4.30;;;2.50;;
77322;SDS011;66384;51.052;9.850;2024-02-04T01:36:20;4.30;;;2.60;;
77322;SDS011;66384;51.052;9.850;2024-02-04T01:38:56;5.70;;;3.30;;
77322;SDS011;66384;51.052;9.850;2024-02-04T01:41:33;3.80;;;2.60;;
77322;SDS011;66384;51.052;9.850;2024-02-04T01:44:09;3.50;;;2.60;;
77322;SDS011;66384;51.052;9.850;2024-02-04T01:46:47;3.60;;;2.60;;
77322;SDS011;66384;51.052;9.850;2024-02-04T01:49:23;3.70;;;2.70;;
77322;SDS011;66384;51.052;9.850;2024-02-04T01:52:00;3.80;;;2.30;;
77322;SDS011;66384;51.052;9.850;2024-02-04T01:54:38;4.60;;;2.80;;
77322;SDS011;66384;51.052;9.850;2024-02-04T01:57:16;3.90;;;2.80;;
77322;SDS011;66384;51.052;9.850;2024-02-04T01:59:53;4.10;;;3.00;;
77322;SDS011;66384;51.052;9.850;2024-02-04T02:02:32;3.80;;;2.70;;
77322;SDS011;66384;51.052;9.850;2024-02-04T02:05:12;6.20;;;2.90;;
77322;SDS011;66384;51.052;9.850;2024-02-04T02:07:49;4.70;;;2.70;;
77322;SDS011;66384;51.052;9.850;2024-02-04T02:10:26;4.20;;;2.60;;
77322;SDS011;66384;51.052;9.850;2024-02-04T02:15:42;3.60;;;2.30;;
77322;SDS011;66384;51.052;9.850;2024-02-04T02:18:23;3.80;;;2.50;;
77322;SDS011;66384;51.052;9.850;2024-02-04T02:21:09;3.90;;;2.30;;
77322;SDS011;66384;51.052;9.850;2024-02-04T02:24:03;3.90;;;2.40;;
77322;SDS011;66384;51.052;9.850;2024-02-04T02:26:43;3.20;;;2.50;;
77322;SDS011;66384;51.052;9.850;2024-02-04T02:29:21;4.20;;;2.60;;
77322;SDS011;66384;51.052;9.850;2024-02-04T02:31:57;3.30;;;2.20;;
77322;SDS011;66384;51.052;9.850;2024-02-04T02:34:35;4.80;;;2.60;;
77322;SDS011;66384;51.052;9.850;2024-02-04T02:37:15;3.20;;;2.60;;
77322;SDS011;66384;51.052;9.850;2024-02-04T02:39:59;3.60;;;2.40;;
77322;SDS011;66384;51.052;9.850;2024-02-04T02:42:41;4.10;;;2.30;;
77322;SDS011;66384;51.052;9.850;2024-02-04T02:45:19;3.80;;;2.80;;
77322;SDS011;66384;51.052;9.850;2024-02-04T02:47:58;3.20;;;2.40;;
77322;SDS011;66384;51.052;9.850;2024-02-04T02:50:37;3.10;;;2.00;;
77322;SDS011;66384;51.052;9.850;2024-02-04T02:55:50;4.20;;;2.80;;
77322;SDS011;66384;51.052;9.850;2024-02-04T02:58:27;3.00;;;2.60;;
77322;SDS011;66384;51.052;9.850;2024-02-04T03:01:05;3.30;;;2.00;;
77322;SDS011;66384;51.052;9.850;2024-02-04T03:03:41;3.10;;;1.80;;
77322;SDS011;66384;51.052;9.850;2024-02-04T03:06:19;3.70;;;2.20;;
77322;SDS011;66384;51.052;9.850;2024-02-04T03:08:56;2.80;;;2.10;;
77322;SDS011;66384;51.052;9.850;2024-02-04T03:11:33;3.50;;;2.00;;
77322;SDS011;66384;51.052;9.850;2024-02-04T03:14:10;3.40;;;1.90;;
77322;SDS011;66384;51.052;9.850;2024-02-04T03:16:47;4.70;;;2.10;;
77322;SDS011;66384;51.052;9.850;2024-02-04T03:19:24;3.00;;;2.00;;
77322;SDS011;66384;51.052;9.850;2024-02-04T03:22:01;2.20;;;1.50;;
77322;SDS011;66384;51.052;9.850;2024-02-04T03:24:39;2.70;;;1.90;;
77322;SDS011;66384;51.052;9.850;2024-02-04T03:27:16;1.60;;;1.20;;
77322;SDS011;66384;51.052;9.850;2024-02-04T03:29:52;2.70;;;1.40;;
77322;SDS011;66384;51.052;9.850;2024-02-04T03:32:29;2.20;;;1.60;;
77322;SDS011;66384;51.052;9.850;2024-02-04T03:37:41;2.00;;;1.40;;
77322;SDS011;66384;51.052;9.850;2024-02-04T03:40:18;1.40;;;1.10;;
77322;SDS011;66384;51.052;9.850;2024-02-04T03:42:56;2.30;;;1.00;;
77322;SDS011;66384;51.052;9.850;2024-02-04T03:45:33;1.40;;;1.10;;
77322;SDS011;66384;51.052;9.850;2024-02-04T03:48:10;1.30;;;1.10;;
77322;SDS011;66384;51.052;9.850;2024-02-04T03:50:46;1.60;;;1.30;;
77322;SDS011;66384;51.052;9.850;2024-02-04T03:53:23;1.60;;;1.10;;
77322;SDS011;66384;51.052;9.850;2024-02-04T03:56:00;2.00;;;1.50;;
77322;SDS011;66384;51.052;9.850;2024-02-04T03:58:37;2.30;;;1.40;;
77322;SDS011;66384;51.052;9.850;2024-02-04T04:01:14;1.70;;;1.30;;
77322;SDS011;66384;51.052;9.850;2024-02-04T04:03:51;1.90;;;1.40;;
77322;SDS011;66384;51.052;9.850;2024-02-04T04:06:28;1.50;;;1.20;;
77322;SDS011;66384;51.052;9.850;2024-02-04T04:09:05;1.40;;;1.20;;
77322;SDS011;66384;51.052;9.850;2024-02-04T04:14:16;1.30;;;1.10;;
77322;SDS011;66384;51.052;9.850;2024-02-04T04:16:52;1.40;;;1.10;;
77322;SDS011;66384;51.052;9.850;2024-02-04T04:19:29;1.10;;;1.00;;
77322;SDS011;66384;51.052;9.850;2024-02-04T04:22:07;1.40;;;1.10;;
77322;SDS011;66384;51.052;9.850;2024-02-04T04:24:44;1.90;;;0.70;;
77322;SDS011;66384;51.052;9.850;2024-02-04T04:27:21;1.50;;;0.90;;
77322;SDS011;66384;51.052;9.850;2024-02-04T04:29:57;0.80;;;0.60;;
77322;SDS011;66384;51.052;9.850;2024-02-04T04:32:34;0.90;;;0.70;;
77322;SDS011;66384;51.052;9.850;2024-02-04T04:35:12;0.70;;;0.70;;
77322;SDS011;66384;51.052;9.850;2024-02-04T04:37:48;1.60;;;0.50;;
77322;SDS011;66384;51.052;9.850;2024-02-04T04:40:25;2.80;;;1.30;;
77322;SDS011;66384;51.052;9.850;2024-02-04T04:43:02;1.10;;;0.90;;
77322;SDS011;66384;51.052;9.850;2024-02-04T04:45:39;1.30;;;0.90;;
77322;SDS011;66384;51.052;9.850;2024-02-04T04:48:16;1.20;;;0.70;;
77322;SDS011;66384;51.052;9.850;2024-02-04T04:50:53;0.80;;;0.60;;
77322;SDS011;66384;51.052;9.850;2024-02-04T04:53:30;1.60;;;0.80;;
77322;SDS011;66384;51.052;9.850;2024-02-04T04:58:42;0.50;;;0.40;;
77322;SDS011;66384;51.052;9.850;2024-02-04T05:01:20;1.10;;;0.90;;
77322;SDS011;66384;51.052;9.850;2024-02-04T05:06:31;0.50;;;0.50;;
77322;SDS011;66384;51.052;9.850;2024-02-04T05:09:08;2.00;;;1.20;;
77322;SDS011;66384;51.052;9.850;2024-02-04T05:11:45;0.90;;;0.70;;
77322;SDS011;66384;51.052;9.850;2024-02-04T05:14:22;0.40;;;0.40;;
77322;SDS011;66384;51.052;9.850;2024-02-04T05:16:59;0.40;;;0.40;;
77322;SDS011;66384;51.052;9.850;2024-02-04T05:22:11;0.90;;;0.80;;
77322;SDS011;66384;51.052;9.850;2024-02-04T05:24:48;1.00;;;0.70;;
77322;SDS011;66384;51.052;9.850;2024-02-04T05:27:25;4.10;;;2.40;;
77322;SDS011;66384;51.052;9.850;2024-02-04T05:30:02;2.90;;;1.60;;
77322;SDS011;66384;51.052;9.850;2024-02-04T05:32:40;1.90;;;1.40;;
77322;SDS011;66384;51.052;9.850;2024-02-04T05:37:51;2.50;;;1.30;;
77322;SDS011;66384;51.052;9.850;2024-02-04T05:40:28;3.20;;;1.60;;
77322;SDS011;66384;51.052;9.850;2024-02-04T05:45:43;4.80;;;2.30;;
77322;SDS011;66384;51.052;9.850;2024-02-04T05:50:54;4.50;;;2.30;;
77322;SDS011;66384;51.052;9.850;2024-02-04T05:53:31;3.10;;;1.80;;
77322;SDS011;66384;51.052;9.850;2024-02-04T05:56:07;1.80;;;0.90;;
77322;SDS011;66384;51.052;9.850;2024-02-04T06:01:19;1.60;;;0.80;;
77322;SDS011;66384;51.052;9.850;2024-02-04T06:03:55;2.90;;;1.90;;
77322;SDS011;66384;51.052;9.850;2024-02-04T06:06:33;0.60;;;0.60;;
77322;SDS011;66384;51.052;9.850;2024-02-04T06:09:10;1.10;;;0.90;;
77322;SDS011;66384;51.052;9.850;2024-02-04T06:11:47;0.90;;;0.60;;
77322;SDS011;66384;51.052;9.850;2024-02-04T06:14:23;0.90;;;0.60;;
77322;SDS011;66384;51.052;9.850;2024-02-04T06:17:00;1.30;;;0.90;;
77322;SDS011;66384;51.052;9.850;2024-02-04T06:19:39;0.80;;;0.80;;
77322;SDS011;66384;51.052;9.850;2024-02-04T06:22:16;0.70;;;0.60;;
77322;SDS011;66384;51.052;9.850;2024-02-04T06:24:54;0.80;;;0.60;;
77322;SDS011;66384;51.052;9.850;2024-02-04T06:27:30;0.40;;;0.40;;
77322;SDS011;66384;51.052;9.850;2024-02-04T06:30:09;0.50;;;0.50;;
77322;SDS011;66384;51.052;9.850;2024-02-04T06:32:47;1.40;;;0.90;;
77322;SDS011;66384;51.052;9.850;2024-02-04T06:35:24;3.20;;;1.90;;
77322;SDS011;66384;51.052;9.850;2024-02-04T06:38:01;3.20;;;2.10;;
77322;SDS011;66384;51.052;9.850;2024-02-04T06:40:38;1.60;;;1.10;;
77322;SDS011;66384;51.052;9.850;2024-02-04T06:43:15;5.80;;;2.40;;
77322;SDS011;66384;51.052;9.850;2024-02-04T06:45:52;4.00;;;2.60;;
77322;SDS011;66384;51.052;9.850;2024-02-04T06:48:28;6.60;;;2.50;;
77322;SDS011;66384;51.052;9.850;2024-02-04T06:51:06;12.70;;;4.70;;
77322;SDS011;66384;51.052;9.850;2024-02-04T06:53:43;13.70;;;5.80;;
77322;SDS011;66384;51.052;9.850;2024-02-04T06:56:19;17.30;;;8.00;;
77322;SDS011;66384;51.052;9.850;2024-02-04T06:58:56;14.70;;;6.10;;
77322;SDS011;66384;51.052;9.850;2024-02-04T07:01:33;9.40;;;4.40;;
77322;SDS011;66384;51.052;9.850;2024-02-04T07:04:10;7.30;;;2.90;;
77322;SDS011;66384;51.052;9.850;2024-02-04T07:06:47;8.60;;;3.50;;
77322;SDS011;66384;51.052;9.850;2024-02-04T07:11:58;6.80;;;4.90;;
77322;SDS011;66384;51.052;9.850;2024-02-04T07:14:35;4.50;;;3.20;;
77322;SDS011;66384;51.052;9.850;2024-02-04T07:17:11;5.10;;;3.40;;
77322;SDS011;66384;51.052;9.850;2024-02-04T07:19:48;6.60;;;4.00;;
77322;SDS011;66384;51.052;9.850;2024-02-04T07:22:25;7.30;;;3.60;;
77322;SDS011;66384;51.052;9.850;2024-02-04T07:25:05;3.30;;;1.80;;
77322;SDS011;66384;51.052;9.850;2024-02-04T07:27:42;2.50;;;1.60;;
77322;SDS011;66384;51.052;9.850;2024-02-04T07:30:20;0.80;;;0.80;;
77322;SDS011;66384;51.052;9.850;2024-02-04T07:32:56;8.30;;;2.70;;
77322;SDS011;66384;51.052;9.850;2024-02-04T07:35:33;2.30;;;1.70;;
77322;SDS011;66384;51.052;9.850;2024-02-04T07:38:10;4.50;;;1.50;;
77322;SDS011;66384;51.052;9.850;2024-02-04T07:40:46;2.50;;;1.40;;
77322;SDS011;66384;51.052;9.850;2024-02-04T07:43:24;3.40;;;1.80;;
77322;SDS011;66384;51.052;9.850;2024-02-04T07:46:01;3.30;;;2.10;;
77322;SDS011;66384;51.052;9.850;2024-02-04T07:48:39;1.70;;;1.30;;
77322;SDS011;66384;51.052;9.850;2024-02-04T07:51:15;5.50;;;2.70;;
77322;SDS011;66384;51.052;9.850;2024-02-04T07:53:52;7.80;;;3.40;;
77322;SDS011;66384;51.052;9.850;2024-02-04T07:56:29;4.70;;;2.80;;
77322;SDS011;66384;51.052;9.850;2024-02-04T07:59:05;4.70;;;2.70;;
77322;SDS011;66384;51.052;9.850;2024-02-04T08:01:42;4.50;;;2.30;;
77322;SDS011;66384;51.052;9.850;2024-02-04T08:06:53;3.90;;;2.40;;
77322;SDS011;66384;51.052;9.850;2024-02-04T08:09:30;3.40;;;2.20;;
77322;SDS011;66384;51.052;9.850;2024-02-04T08:12:07;3.50;;;2.40;;
77322;SDS011;66384;51.052;9.850;2024-02-04T08:14:44;8.70;;;3.80;;
77322;SDS011;66384;51.052;9.850;2024-02-04T08:17:21;8.80;;;4.60;;
77322;SDS011;66384;51.052;9.850;2024-02-04T08:20:01;5.10;;;3.10;;
77322;SDS011;66384;51.052;9.850;2024-02-04T08:22:39;3.90;;;2.60;;
77322;SDS011;66384;51.052;9.850;2024-02-04T08:25:16;3.10;;;2.00;;
77322;SDS011;66384;51.052;9.850;2024-02-04T08:27:53;3.80;;;2.60;;
77322;SDS011;66384;51.052;9.850;2024-02-04T08:30:29;4.90;;;2.30;;
77322;SDS011;66384;51.052;9.850;2024-02-04T08:33:06;4.90;;;2.00;;
77322;SDS011;66384;51.052;9.850;2024-02-04T08:35:44;3.30;;;2.30;;
77322;SDS011;66384;51.052;9.850;2024-02-04T08:38:21;4.30;;;2.10;;
77322;SDS011;66384;51.052;9.850;2024-02-04T08:40:58;3.50;;;2.30;;
77322;SDS011;66384;51.052;9.850;2024-02-04T08:43:35;3.50;;;2.70;;
77322;SDS011;66384;51.052;9.850;2024-02-04T08:46:11;4.40;;;2.70;;
77322;SDS011;66384;51.052;9.850;2024-02-04T08:48:48;3.70;;;2.60;;
77322;SDS011;66384;51.052;9.850;2024-02-04T08:51:25;4.20;;;2.10;;
77322;SDS011;66384;51.052;9.850;2024-02-04T08:54:03;3.50;;;2.30;;
77322;SDS011;66384;51.052;9.850;2024-02-04T08:56:39;3.40;;;2.40;;
77322;SDS011;66384;51.052;9.850;2024-02-04T09:01:50;3.90;;;2.50;;
77322;SDS011;66384;51.052;9.850;2024-02-04T09:04:27;2.90;;;2.20;;
77322;SDS011;66384;51.052;9.850;2024-02-04T09:07:11;3.50;;;2.40;;
77322;SDS011;66384;51.052;9.850;2024-02-04T09:09:48;2.60;;;2.00;;
77322;SDS011;66384;51.052;9.850;2024-02-04T09:12:25;4.70;;;2.50;;
77322;SDS011;66384;51.052;9.850;2024-02-04T09:15:03;3.70;;;2.30;;
77322;SDS011;66384;51.052;9.850;2024-02-04T09:17:41;3.60;;;2.60;;
77322;SDS011;66384;51.052;9.850;2024-02-04T09:20:18;3.50;;;2.60;;
77322;SDS011;66384;51.052;9.850;2024-02-04T09:22:55;5.10;;;3.10;;
77322;SDS011;66384;51.052;9.850;2024-02-04T09:25:32;4.50;;;2.90;;
77322;SDS011;66384;51.052;9.850;2024-02-04T09:28:09;4.70;;;2.70;;
77322;SDS011;66384;51.052;9.850;2024-02-04T09:30:46;4.30;;;2.60;;
77322;SDS011;66384;51.052;9.850;2024-02-04T09:33:23;4.20;;;3.30;;
77322;SDS011;66384;51.052;9.850;2024-02-04T09:36:01;4.70;;;2.90;;
77322;SDS011;66384;51.052;9.850;2024-02-04T09:38:39;4.10;;;2.90;;
77322;SDS011;66384;51.052;9.850;2024-02-04T09:41:16;5.00;;;3.10;;
77322;SDS011;66384;51.052;9.850;2024-02-04T09:43:53;4.60;;;2.90;;
77322;SDS011;66384;51.052;9.850;2024-02-04T09:46:32;4.20;;;2.80;;
77322;SDS011;66384;51.052;9.850;2024-02-04T09:49:10;4.30;;;2.30;;
77322;SDS011;66384;51.052;9.850;2024-02-04T09:51:48;4.50;;;3.40;;
77322;SDS011;66384;51.052;9.850;2024-02-04T09:54:25;5.40;;;3.20;;
77322;SDS011;66384;51.052;9.850;2024-02-04T09:57:04;6.60;;;3.80;;
77322;SDS011;66384;51.052;9.850;2024-02-04T09:59:41;7.90;;;3.90;;
77322;SDS011;66384;51.052;9.850;2024-02-04T10:02:18;5.10;;;3.20;;
77322;SDS011;66384;51.052;9.850;2024-02-04T10:04:57;6.20;;;3.90;;
77322;SDS011;66384;51.052;9.850;2024-02-04T10:07:34;6.70;;;3.20;;
77322;SDS011;66384;51.052;9.850;2024-02-04T10:10:12;4.80;;;3.30;;
77322;SDS011;66384;51.052;9.850;2024-02-04T10:12:49;4.30;;;2.60;;
77322;SDS011;66384;51.052;9.850;2024-02-04T10:15:29;5.90;;;3.30;;
77322;SDS011;66384;51.052;9.850;2024-02-04T10:18:07;5.00;;;2.90;;
77322;SDS011;66384;51.052;9.850;2024-02-04T10:20:45;4.60;;;2.80;;
77322;SDS011;66384;51.052;9.850;2024-02-04T10:23:23;5.50;;;2.90;;
77322;SDS011;66384;51.052;9.850;2024-02-04T10:26:04;3.00;;;2.20;;
77322;SDS011;66384;51.052;9.850;2024-02-04T10:28:42;3.80;;;2.60;;
77322;SDS011;66384;51.052;9.850;2024-02-04T10:31:28;4.30;;;2.60;;
77322;SDS011;66384;51.052;9.850;2024-02-04T10:34:06;3.40;;;2.10;;
77322;SDS011;66384;51.052;9.850;2024-02-04T10:36:44;3.00;;;2.10;;
77322;SDS011;66384;51.052;9.850;2024-02-04T10:39:22;3.00;;;2.10;;
77322;SDS011;66384;51.052;9.850;2024-02-04T10:42:00;4.10;;;2.60;;
77322;SDS011;66384;51.052;9.850;2024-02-04T10:44:39;3.10;;;2.20;;
77322;SDS011;66384;51.052;9.850;2024-02-04T10:47:22;4.00;;;2.40;;
77322;SDS011;66384;51.052;9.850;2024-02-04T10:50:05;2.30;;;1.70;;
77322;SDS011;66384;51.052;9.850;2024-02-04T10:52:42;2.60;;;1.80;;
77322;SDS011;66384;51.052;9.850;2024-02-04T10:55:24;6.30;;;2.60;;
77322;SDS011;66384;51.052;9.850;2024-02-04T10:58:03;2.80;;;1.70;;
77322;SDS011;66384;51.052;9.850;2024-02-04T11:00:41;5.40;;;2.80;;
77322;SDS011;66384;51.052;9.850;2024-02-04T11:03:18;6.20;;;3.40;;
77322;SDS011;66384;51.052;9.850;2024-02-04T11:05:58;7.10;;;4.20;;
77322;SDS011;66384;51.052;9.850;2024-02-04T11:08:35;7.40;;;4.30;;
77322;SDS011;66384;51.052;9.850;2024-02-04T11:11:14;4.50;;;2.70;;
77322;SDS011;66384;51.052;9.850;2024-02-04T11:13:53;2.20;;;1.60;;
77322;SDS011;66384;51.052;9.850;2024-02-04T11:19:23;2.00;;;1.40;;
77322;SDS011;66384;51.052;9.850;2024-02-04T11:22:24;2.20;;;0.90;;
77322;SDS011;66384;51.052;9.850;2024-02-04T11:25:20;1.00;;;0.80;;
77322;SDS011;66384;51.052;9.850;2024-02-04T11:28:09;4.60;;;2.20;;
77322;SDS011;66384;51.052;9.850;2024-02-04T11:30:50;5.90;;;3.20;;
77322;SDS011;66384;51.052;9.850;2024-02-04T11:33:28;8.20;;;3.70;;
77322;SDS011;66384;51.052;9.850;2024-02-04T11:36:06;9.70;;;4.10;;
77322;SDS011;66384;51.052;9.850;2024-02-04T11:38:47;11.50;;;4.30;;
77322;SDS011;66384;51.052;9.850;2024-02-04T11:41:25;12.10;;;4.10;;
77322;SDS011;66384;51.052;9.850;2024-02-04T11:44:01;5.60;;;2.60;;
77322;SDS011;66384;51.052;9.850;2024-02-04T11:46:48;3.90;;;2.50;;
77322;SDS011;66384;51.052;9.850;2024-02-04T11:49:26;3.80;;;2.90;;
77322;SDS011;66384;51.052;9.850;2024-02-04T11:52:03;5.40;;;2.80;;
77322;SDS011;66384;51.052;9.850;2024-02-04T11:54:40;4.50;;;2.60;;
77322;SDS011;66384;51.052;9.850;2024-02-04T11:57:17;7.80;;;3.80;;
77322;SDS011;66384;51.052;9.850;2024-02-04T11:59:54;6.50;;;3.80;;
77322;SDS011;66384;51.052;9.850;2024-02-04T12:02:32;6.10;;;3.40;;
77322;SDS011;66384;51.052;9.850;2024-02-04T12:05:10;4.70;;;2.40;;
77322;SDS011;66384;51.052;9.850;2024-02-04T12:07:49;4.10;;;2.40;;
77322;SDS011;66384;51.052;9.850;2024-02-04T12:10:26;19.70;;;6.30;;
77322;SDS011;66384;51.052;9.850;2024-02-04T12:13:04;14.40;;;5.20;;
77322;SDS011;66384;51.052;9.850;2024-02-04T12:15:41;8.80;;;4.20;;
77322;SDS011;66384;51.052;9.850;2024-02-04T12:18:19;12.30;;;5.00;;
77322;SDS011;66384;51.052;9.850;2024-02-04T12:20:56;7.90;;;3.70;;
77322;SDS011;66384;51.052;9.850;2024-02-04T12:23:33;12.40;;;5.10;;
77322;SDS011;66384;51.052;9.850;2024-02-04T12:28:44;10.40;;;4.30;;
77322;SDS011;66384;51.052;9.850;2024-02-04T12:31:23;5.40;;;3.10;;
77322;SDS011;66384;51.052;9.850;2024-02-04T12:34:03;6.20;;;2.70;;
77322;SDS011;66384;51.052;9.850;2024-02-04T12:36:43;9.80;;;4.80;;
77322;SDS011;66384;51.052;9.850;2024-02-04T12:39:20;7.50;;;3.10;;
77322;SDS011;66384;51.052;9.850;2024-02-04T12:41:57;10.00;;;4.50;;
77322;SDS011;66384;51.052;9.850;2024-02-04T12:44:34;6.50;;;3.30;;
77322;SDS011;66384;51.052;9.850;2024-02-04T12:47:10;4.40;;;2.50;;
77322;SDS011;66384;51.052;9.850;2024-02-04T12:52:22;5.30;;;2.70;;
77322;SDS011;66384;51.052;9.850;2024-02-04T12:54:58;4.70;;;2.60;;
77322;SDS011;66384;51.052;9.850;2024-02-04T12:57:35;7.10;;;3.10;;
77322;SDS011;66384;51.052;9.850;2024-02-04T13:00:13;5.70;;;3.30;;
77322;SDS011;66384;51.052;9.850;2024-02-04T13:02:51;6.60;;;2.90;;
77322;SDS011;66384;51.052;9.850;2024-02-04T13:05:32;8.50;;;3.80;;
77322;SDS011;66384;51.052;9.850;2024-02-04T13:10:43;9.30;;;4.80;;
77322;SDS011;66384;51.052;9.850;2024-02-04T13:13:26;7.30;;;3.70;;
77322;SDS011;66384;51.052;9.850;2024-02-04T13:16:03;11.10;;;5.60;;
77322;SDS011;66384;51.052;9.850;2024-02-04T13:18:40;4.90;;;2.80;;
77322;SDS011;66384;51.052;9.850;2024-02-04T13:21:17;4.50;;;2.90;;
77322;SDS011;66384;51.052;9.850;2024-02-04T13:23:54;4.20;;;2.70;;
77322;SDS011;66384;51.052;9.850;2024-02-04T13:26:31;2.20;;;1.60;;
77322;SDS011;66384;51.052;9.850;2024-02-04T13:29:11;5.70;;;2.20;;
77322;SDS011;66384;51.052;9.850;2024-02-04T13:31:48;3.30;;;2.10;;
77322;SDS011;66384;51.052;9.850;2024-02-04T13:36:59;5.70;;;3.80;;
77322;SDS011;66384;51.052;9.850;2024-02-04T13:39:36;4.60;;;2.60;;
77322;SDS011;66384;51.052;9.850;2024-02-04T13:42:13;3.90;;;2.70;;
77322;SDS011;66384;51.052;9.850;2024-02-04T13:44:49;2.30;;;1.40;;
77322;SDS011;66384;51.052;9.850;2024-02-04T13:47:26;5.10;;;3.60;;
77322;SDS011;66384;51.052;9.850;2024-02-04T13:50:03;3.70;;;2.90;;
77322;SDS011;66384;51.052;9.850;2024-02-04T13:52:42;4.40;;;3.00;;
77322;SDS011;66384;51.052;9.850;2024-02-04T13:55:18;3.60;;;2.30;;
77322;SDS011;66384;51.052;9.850;2024-02-04T13:57:55;2.50;;;1.90;;
77322;SDS011;66384;51.052;9.850;2024-02-04T14:00:32;2.70;;;1.80;;
77322;SDS011;66384;51.052;9.850;2024-02-04T14:03:09;1.70;;;1.30;;
77322;SDS011;66384;51.052;9.850;2024-02-04T14:05:45;2.40;;;1.60;;
77322;SDS011;66384;51.052;9.850;2024-02-04T14:08:23;1.80;;;1.30;;
77322;SDS011;66384;51.052;9.850;2024-02-04T14:10:59;2.90;;;1.70;;
77322;SDS011;66384;51.052;9.850;2024-02-04T14:13:36;4.70;;;2.60;;
77322;SDS011;66384;51.052;9.850;2024-02-04T14:16:13;4.20;;;2.70;;
77322;SDS011;66384;51.052;9.850;2024-02-04T14:18:49;3.50;;;2.60;;
77322;SDS011;66384;51.052;9.850;2024-02-04T14:21:30;3.30;;;2.00;;
77322;SDS011;66384;51.052;9.850;2024-02-04T14:24:07;2.40;;;1.60;;
77322;SDS011;66384;51.052;9.850;2024-02-04T14:26:44;2.60;;;1.80;;
77322;SDS011;66384;51.052;9.850;2024-02-04T14:29:21;2.20;;;1.70;;
77322;SDS011;66384;51.052;9.850;2024-02-04T14:31:59;1.90;;;1.40;;
77322;SDS011;66384;51.052;9.850;2024-02-04T14:34:36;1.70;;;1.40;;
77322;SDS011;66384;51.052;9.850;2024-02-04T14:37:14;1.50;;;1.10;;
77322;SDS011;66384;51.052;9.850;2024-02-04T14:39:51;2.80;;;2.00;;
77322;SDS011;66384;51.052;9.850;2024-02-04T14:42:29;3.80;;;2.10;;
77322;SDS011;66384;51.052;9.850;2024-02-04T14:45:11;3.00;;;1.80;;
77322;SDS011;66384;51.052;9.850;2024-02-04T14:47:50;3.80;;;2.40;;
77322;SDS011;66384;51.052;9.850;2024-02-04T14:50:27;4.20;;;2.30;;
77322;SDS011;66384;51.052;9.850;2024-02-04T14:53:05;4.90;;;2.40;;
77322;SDS011;66384;51.052;9.850;2024-02-04T14:55:41;2.90;;;1.80;;
77322;SDS011;66384;51.052;9.850;2024-02-04T14:58:18;2.60;;;1.90;;
77322;SDS011;66384;51.052;9.850;2024-02-04T15:00:55;1.80;;;1.40;;
77322;SDS011;66384;51.052;9.850;2024-02-04T15:03:32;1.10;;;0.90;;
77322;SDS011;66384;51.052;9.850;2024-02-04T15:06:08;2.00;;;1.10;;
77322;SDS011;66384;51.052;9.850;2024-02-04T15:08:46;4.90;;;1.40;;
77322;SDS011;66384;51.052;9.850;2024-02-04T15:11:23;4.40;;;2.30;;
77322;SDS011;66384;51.052;9.850;2024-02-04T15:14:03;6.40;;;3.00;;
77322;SDS011;66384;51.052;9.850;2024-02-04T15:16:41;5.10;;;2.60;;
77322;SDS011;66384;51.052;9.850;2024-02-04T15:19:20;4.30;;;2.30;;
77322;SDS011;66384;51.052;9.850;2024-02-04T15:21:58;3.60;;;2.60;;
77322;SDS011;66384;51.052;9.850;2024-02-04T15:24:36;2.70;;;1.60;;
77322;SDS011;66384;51.052;9.850;2024-02-04T15:27:14;2.50;;;1.60;;
77322;SDS011;66384;51.052;9.850;2024-02-04T15:29:53;2.80;;;2.10;;
77322;SDS011;66384;51.052;9.850;2024-02-04T15:32:32;3.50;;;1.20;;
77322;SDS011;66384;51.052;9.850;2024-02-04T15:35:13;2.40;;;1.50;;
77322;SDS011;66384;51.052;9.850;2024-02-04T15:37:51;4.30;;;2.40;;
77322;SDS011;66384;51.052;9.850;2024-02-04T15:40:30;5.20;;;2.30;;
77322;SDS011;66384;51.052;9.850;2024-02-04T15:43:09;6.30;;;2.50;;
77322;SDS011;66384;51.052;9.850;2024-02-04T15:45:48;9.20;;;4.10;;
77322;SDS011;66384;51.052;9.850;2024-02-04T15:48:28;5.90;;;3.30;;
77322;SDS011;66384;51.052;9.850;2024-02-04T15:51:07;4.60;;;2.00;;
77322;SDS011;66384;51.052;9.850;2024-02-04T15:53:45;6.60;;;3.20;;
77322;SDS011;66384;51.052;9.850;2024-02-04T15:56:23;3.50;;;1.40;;
77322;SDS011;66384;51.052;9.850;2024-02-04T15:59:07;2.90;;;1.60;;
77322;SDS011;66384;51.052;9.850;2024-02-04T16:01:46;1.20;;;0.90;;
77322;SDS011;66384;51.052;9.850;2024-02-04T16:04:25;3.80;;;2.40;;
77322;SDS011;66384;51.052;9.850;2024-02-04T16:07:03;3.10;;;2.00;;
77322;SDS011;66384;51.052;9.850;2024-02-04T16:09:42;2.30;;;1.60;;
77322;SDS011;66384;51.052;9.850;2024-02-04T16:12:20;5.20;;;2.70;;
77322;SDS011;66384;51.052;9.850;2024-02-04T16:14:59;1.80;;;1.40;;
77322;SDS011;66384;51.052;9.850;2024-02-04T16:17:41;2.90;;;1.80;;
77322;SDS011;66384;51.052;9.850;2024-02-04T16:20:20;2.50;;;1.80;;
77322;SDS011;66384;51.052;9.850;2024-02-04T16:22:57;3.80;;;2.20;;
77322;SDS011;66384;51.052;9.850;2024-02-04T16:25:33;2.50;;;1.70;;
77322;SDS011;66384;51.052;9.850;2024-02-04T16:28:10;3.30;;;1.80;;
77322;SDS011;66384;51.052;9.850;2024-02-04T16:33:21;2.70;;;1.40;;
77322;SDS011;66384;51.052;9.850;2024-02-04T16:35:57;4.10;;;2.00;;
77322;SDS011;66384;51.052;9.850;2024-02-04T16:38:36;2.90;;;1.50;;
77322;SDS011;66384;51.052;9.850;2024-02-04T16:41:14;2.60;;;1.60;;
77322;SDS011;66384;51.052;9.850;2024-02-04T16:43:51;5.00;;;2.20;;